sensor_id;sensor_type;location;lat;lon;timestamp;pressure;altitude;pressure_sealevel;temperature
60936;BMP280;46804;51.786;19.520;2023-04-01T00:00:28;156506.97;;;9.14
60936;BMP280;46804;51.786;19.520;2023-04-01T00:04:48;156512.09;;;9.16
60936;BMP280;46804;51.786;19.520;2023-04-01T00:08:49;156500.56;;;9.12
60936;BMP280;46804;51.786;19.520;2023-04-01T00:12:50;156508.22;;;9.15
60936;BMP280;46804;51.786;19.520;2023-04-01T00:16:50;156522.34;;;9.20
60936;BMP280;46804;51.786;19.520;2023-04-01T00:20:53;156521.03;;;9.20
60936;BMP280;46804;51.786;19.520;2023-04-01T00:24:54;156517.22;;;9.18
60936;BMP280;46804;51.786;19.520;2023-04-01T00:28:55;156500.56;;;9.12
60936;BMP280;46804;51.786;19.520;2023-04-01T00:32:55;156515.94;;;9.18
60936;BMP280;46804;51.786;19.520;2023-04-01T00:36:56;156482.63;;;9.05
60936;BMP280;46804;51.786;19.520;2023-04-01T00:40:57;156477.47;;;9.03
60936;BMP280;46804;51.786;19.520;2023-04-01T00:49:29;156522.34;;;9.20
60936;BMP280;46804;51.786;19.520;2023-04-01T00:53:32;156513.38;;;9.17
60936;BMP280;46804;51.786;19.520;2023-04-01T00:57:35;156514.63;;;9.17
60936;BMP280;46804;51.786;19.520;2023-04-01T01:01:37;156495.41;;;9.10
60936;BMP280;46804;51.786;19.520;2023-04-01T01:10:02;156526.16;;;9.22
60936;BMP280;46804;51.786;19.520;2023-04-01T01:14:15;156536.44;;;9.26
60936;BMP280;46804;51.786;19.520;2023-04-01T01:31:30;156519.75;;;9.19
60936;BMP280;46804;51.786;19.520;2023-04-01T01:35:38;156545.44;;;9.29
60936;BMP280;46804;51.786;19.520;2023-04-01T01:39:43;156539.03;;;9.27
60936;BMP280;46804;51.786;19.520;2023-04-01T01:43:47;156492.88;;;9.09
60936;BMP280;46804;51.786;19.520;2023-04-01T01:47:50;156496.69;;;9.11
60936;BMP280;46804;51.786;19.520;2023-04-01T01:51:51;156509.50;;;9.15
60936;BMP280;46804;51.786;19.520;2023-04-01T01:55:53;156510.81;;;9.16
60936;BMP280;46804;51.786;19.520;2023-04-01T01:59:58;156473.63;;;9.02
60936;BMP280;46804;51.786;19.520;2023-04-01T02:04:02;156491.56;;;9.09
60936;BMP280;46804;51.786;19.520;2023-04-01T02:08:12;156485.16;;;9.06
60936;BMP280;46804;51.786;19.520;2023-04-01T02:12:15;156441.56;;;8.89
60936;BMP280;46804;51.786;19.520;2023-04-01T02:16:24;156437.75;;;8.88
60936;BMP280;46804;51.786;19.520;2023-04-01T02:20:27;156408.28;;;8.77
60936;BMP280;46804;51.786;19.520;2023-04-01T02:24:31;156427.50;;;8.84
60936;BMP280;46804;51.786;19.520;2023-04-01T02:28:35;156422.34;;;8.82
60936;BMP280;46804;51.786;19.520;2023-04-01T02:32:40;156419.81;;;8.81
60936;BMP280;46804;51.786;19.520;2023-04-01T02:36:41;156403.16;;;8.75
60936;BMP280;46804;51.786;19.520;2023-04-01T02:40:46;156389.03;;;8.69
60936;BMP280;46804;51.786;19.520;2023-04-01T02:44:47;156389.03;;;8.69
60936;BMP280;46804;51.786;19.520;2023-04-01T02:48:48;156356.97;;;8.57
60936;BMP280;46804;51.786;19.520;2023-04-01T02:52:49;156331.38;;;8.47
60936;BMP280;46804;51.786;19.520;2023-04-01T02:56:49;156322.38;;;8.44
60936;BMP280;46804;51.786;19.520;2023-04-01T03:00:50;156309.59;;;8.39
60936;BMP280;46804;51.786;19.520;2023-04-01T03:04:51;156317.25;;;8.42
60936;BMP280;46804;51.786;19.520;2023-04-01T03:08:52;156308.31;;;8.38
60936;BMP280;46804;51.786;19.520;2023-04-01T03:12:52;156319.84;;;8.43
60936;BMP280;46804;51.786;19.520;2023-04-01T03:16:53;156312.19;;;8.40
60936;BMP280;46804;51.786;19.520;2023-04-01T03:20:54;156307.06;;;8.38
60936;BMP280;46804;51.786;19.520;2023-04-01T03:24:54;156305.72;;;8.37
60936;BMP280;46804;51.786;19.520;2023-04-01T03:28:55;156292.94;;;8.32
60936;BMP280;46804;51.786;19.520;2023-04-01T03:32:57;156287.81;;;8.30
60936;BMP280;46804;51.786;19.520;2023-04-01T03:36:59;156271.16;;;8.24
60936;BMP280;46804;51.786;19.520;2023-04-01T03:41:00;156273.75;;;8.25
60936;BMP280;46804;51.786;19.520;2023-04-01T03:45:02;156276.28;;;8.26
60936;BMP280;46804;51.786;19.520;2023-04-01T03:49:06;156280.13;;;8.27
60936;BMP280;46804;51.786;19.520;2023-04-01T03:53:12;156273.75;;;8.25
60936;BMP280;46804;51.786;19.520;2023-04-01T03:57:12;156276.28;;;8.26
60936;BMP280;46804;51.786;19.520;2023-04-01T04:01:18;156254.50;;;8.17
60936;BMP280;46804;51.786;19.520;2023-04-01T04:05:19;156258.34;;;8.19
60936;BMP280;46804;51.786;19.520;2023-04-01T04:09:20;156268.59;;;8.23
60936;BMP280;46804;51.786;19.520;2023-04-01T04:13:21;156242.97;;;8.13
60936;BMP280;46804;51.786;19.520;2023-04-01T04:17:22;156232.75;;;8.09
60936;BMP280;46804;51.786;19.520;2023-04-01T04:21:22;156204.53;;;7.98
60936;BMP280;46804;51.786;19.520;2023-04-01T04:25:23;156195.53;;;7.95
60936;BMP280;46804;51.786;19.520;2023-04-01T04:29:24;156198.09;;;7.96
60936;BMP280;46804;51.786;19.520;2023-04-01T04:33:25;156209.59;;;8.00
60936;BMP280;46804;51.786;19.520;2023-04-01T04:37:26;156155.84;;;7.79
60936;BMP280;46804;51.786;19.520;2023-04-01T04:41:27;156148.19;;;7.77
60936;BMP280;46804;51.786;19.520;2023-04-01T04:45:27;156134.06;;;7.71
60936;BMP280;46804;51.786;19.520;2023-04-01T04:49:28;156162.25;;;7.82
60936;BMP280;46804;51.786;19.520;2023-04-01T04:53:30;156173.75;;;7.86
60936;BMP280;46804;51.786;19.520;2023-04-01T04:57:30;156145.59;;;7.76
60936;BMP280;46804;51.786;19.520;2023-04-01T05:01:31;156145.59;;;7.76
60936;BMP280;46804;51.786;19.520;2023-04-01T05:05:33;156176.34;;;7.87
60936;BMP280;46804;51.786;19.520;2023-04-01T05:09:34;156167.38;;;7.84
60936;BMP280;46804;51.786;19.520;2023-04-01T05:13:36;156203.22;;;7.98
60936;BMP280;46804;51.786;19.520;2023-04-01T05:17:37;156195.53;;;7.95
60936;BMP280;46804;51.786;19.520;2023-04-01T05:21:37;156198.09;;;7.96
60936;BMP280;46804;51.786;19.520;2023-04-01T05:25:38;156209.59;;;8.00
60936;BMP280;46804;51.786;19.520;2023-04-01T05:29:39;156212.19;;;8.01
60936;BMP280;46804;51.786;19.520;2023-04-01T05:33:39;156221.13;;;8.05
60936;BMP280;46804;51.786;19.520;2023-04-01T05:37:40;156241.69;;;8.13
60936;BMP280;46804;51.786;19.520;2023-04-01T05:41:41;156241.69;;;8.13
60936;BMP280;46804;51.786;19.520;2023-04-01T05:45:41;156244.28;;;8.13
60936;BMP280;46804;51.786;19.520;2023-04-01T05:49:42;156257.09;;;8.18
60936;BMP280;46804;51.786;19.520;2023-04-01T05:53:43;156239.16;;;8.12
60936;BMP280;46804;51.786;19.520;2023-04-01T05:57:45;156239.16;;;8.12
60936;BMP280;46804;51.786;19.520;2023-04-01T06:01:46;156281.41;;;8.28
60936;BMP280;46804;51.786;19.520;2023-04-01T06:05:47;156287.81;;;8.30
60936;BMP280;46804;51.786;19.520;2023-04-01T06:09:47;156303.19;;;8.36
60936;BMP280;46804;51.786;19.520;2023-04-01T06:22:25;156395.44;;;8.72
60936;BMP280;46804;51.786;19.520;2023-04-01T06:30:43;156421.09;;;8.81
60936;BMP280;46804;51.786;19.520;2023-04-01T06:48:14;156414.69;;;8.79
60936;BMP280;46804;51.786;19.520;2023-04-01T06:52:19;156464.69;;;8.98
60936;BMP280;46804;51.786;19.520;2023-04-01T06:56:25;156442.88;;;8.90
60936;BMP280;46804;51.786;19.520;2023-04-01T07:00:31;156494.16;;;9.10
60936;BMP280;46804;51.786;19.520;2023-04-01T07:04:37;156528.75;;;9.23
60936;BMP280;46804;51.786;19.520;2023-04-01T07:08:41;156515.94;;;9.18
60936;BMP280;46804;51.786;19.520;2023-04-01T07:12:50;156537.69;;;9.26
60936;BMP280;46804;51.786;19.520;2023-04-01T07:16:56;156550.56;;;9.31
60936;BMP280;46804;51.786;19.520;2023-04-01T07:20:59;156576.19;;;9.41
60936;BMP280;46804;51.786;19.520;2023-04-01T07:25:21;156635.19;;;9.64
60936;BMP280;46804;51.786;19.520;2023-04-01T07:29:25;156639.00;;;9.65
60936;BMP280;46804;51.786;19.520;2023-04-01T07:33:39;156622.34;;;9.59
60936;BMP280;46804;51.786;19.520;2023-04-01T07:37:52;156635.19;;;9.64
60936;BMP280;46804;51.786;19.520;2023-04-01T07:42:13;156599.25;;;9.50
60936;BMP280;46804;51.786;19.520;2023-04-01T07:50:49;156636.47;;;9.64
60936;BMP280;46804;51.786;19.520;2023-04-01T07:55:14;156672.34;;;9.78
60936;BMP280;46804;51.786;19.520;2023-04-01T08:08:19;156776.34;;;10.18
60936;BMP280;46804;51.786;19.520;2023-04-01T08:21:10;156776.34;;;10.18
60936;BMP280;46804;51.786;19.520;2023-04-01T08:25:20;156778.88;;;10.19
60936;BMP280;46804;51.786;19.520;2023-04-01T08:29:30;156764.78;;;10.14
60936;BMP280;46804;51.786;19.520;2023-04-01T08:33:36;156846.88;;;10.45
60936;BMP280;46804;51.786;19.520;2023-04-01T08:37:40;156875.13;;;10.56
60936;BMP280;46804;51.786;19.520;2023-04-01T08:50:58;156935.47;;;10.79
60936;BMP280;46804;51.786;19.520;2023-04-01T08:55:20;156819.94;;;10.35
60936;BMP280;46804;51.786;19.520;2023-04-01T08:59:35;156784.03;;;10.21
60936;BMP280;46804;51.786;19.520;2023-04-01T09:17:38;156882.81;;;10.59
60936;BMP280;46804;51.786;19.520;2023-04-01T09:21:54;156899.50;;;10.65
60936;BMP280;46804;51.786;19.520;2023-04-01T09:26:13;156902.09;;;10.66
60936;BMP280;46804;51.786;19.520;2023-04-01T09:30:31;156749.38;;;10.08
60936;BMP280;46804;51.786;19.520;2023-04-01T09:35:19;156825.06;;;10.37
60936;BMP280;46804;51.786;19.520;2023-04-01T09:56:50;157244.94;;;11.98
60936;BMP280;46804;51.786;19.520;2023-04-01T10:01:10;157171.72;;;11.70
60936;BMP280;46804;51.786;19.520;2023-04-01T10:09:42;157189.75;;;11.77
60936;BMP280;46804;51.786;19.520;2023-04-01T10:27:16;157156.34;;;11.64
60936;BMP280;46804;51.786;19.520;2023-04-01T10:36:01;157198.69;;;11.80
60936;BMP280;46804;51.786;19.520;2023-04-01T10:40:26;157138.31;;;11.57
60936;BMP280;46804;51.786;19.520;2023-04-01T10:49:38;157239.78;;;11.96
60936;BMP280;46804;51.786;19.520;2023-04-01T11:15:24;157516.16;;;13.02
60936;BMP280;46804;51.786;19.520;2023-04-01T11:24:09;157262.91;;;12.05
60936;BMP280;46804;51.786;19.520;2023-04-01T11:32:49;157248.81;;;11.99
60936;BMP280;46804;51.786;19.520;2023-04-01T11:41:27;157397.84;;;12.56
60936;BMP280;46804;51.786;19.520;2023-04-01T11:50:02;157427.41;;;12.68
60936;BMP280;46804;51.786;19.520;2023-04-01T11:58:51;157430.00;;;12.69
60936;BMP280;46804;51.786;19.520;2023-04-01T12:03:15;157494.31;;;12.93
60936;BMP280;46804;51.786;19.520;2023-04-01T12:07:55;157462.19;;;12.81
60936;BMP280;46804;51.786;19.520;2023-04-01T12:12:20;157476.31;;;12.87
60936;BMP280;46804;51.786;19.520;2023-04-01T12:16:51;157368.31;;;12.45
60936;BMP280;46804;51.786;19.520;2023-04-01T12:25:58;157332.34;;;12.31
60936;BMP280;46804;51.786;19.520;2023-04-01T12:30:12;157271.94;;;12.08
60936;BMP280;46804;51.786;19.520;2023-04-01T12:38:34;157243.66;;;11.97
60936;BMP280;46804;51.786;19.520;2023-04-01T12:43:05;157268.06;;;12.07
60936;BMP280;46804;51.786;19.520;2023-04-01T12:55:48;157229.56;;;11.92
60936;BMP280;46804;51.786;19.520;2023-04-01T13:09:45;157107.53;;;11.45
60936;BMP280;46804;51.786;19.520;2023-04-01T13:22:32;156964.97;;;10.90
60936;BMP280;46804;51.786;19.520;2023-04-01T13:27:05;156929.03;;;10.77
60936;BMP280;46804;51.786;19.520;2023-04-01T13:31:36;156929.03;;;10.77
60936;BMP280;46804;51.786;19.520;2023-04-01T13:36:06;156905.91;;;10.68
60936;BMP280;46804;51.786;19.520;2023-04-01T13:40:25;156905.91;;;10.68
60936;BMP280;46804;51.786;19.520;2023-04-01T13:44:46;156950.81;;;10.85
60936;BMP280;46804;51.786;19.520;2023-04-01T13:49:04;156954.69;;;10.86
60936;BMP280;46804;51.786;19.520;2023-04-01T13:53:47;156979.06;;;10.96
60936;BMP280;46804;51.786;19.520;2023-04-01T13:58:15;156972.66;;;10.93
60936;BMP280;46804;51.786;19.520;2023-04-01T14:07:06;156964.97;;;10.90
60936;BMP280;46804;51.786;19.520;2023-04-01T14:16:24;156949.56;;;10.84
60936;BMP280;46804;51.786;19.520;2023-04-01T14:20:41;156898.22;;;10.65
60936;BMP280;46804;51.786;19.520;2023-04-01T14:25:10;156895.66;;;10.64
60936;BMP280;46804;51.786;19.520;2023-04-01T14:33:48;156881.53;;;10.58
60936;BMP280;46804;51.786;19.520;2023-04-01T14:42:58;156849.44;;;10.46
60936;BMP280;46804;51.786;19.520;2023-04-01T14:47:23;156776.34;;;10.18
60936;BMP280;46804;51.786;19.520;2023-04-01T14:51:38;156785.28;;;10.21
60936;BMP280;46804;51.786;19.520;2023-04-01T14:59:48;156754.53;;;10.10
60936;BMP280;46804;51.786;19.520;2023-04-01T15:04:20;156692.91;;;9.86
60936;BMP280;46804;51.786;19.520;2023-04-01T15:08:44;156733.97;;;10.02
60936;BMP280;46804;51.786;19.520;2023-04-01T15:13:10;156730.13;;;10.00
60936;BMP280;46804;51.786;19.520;2023-04-01T15:17:43;156725.03;;;9.98
60936;BMP280;46804;51.786;19.520;2023-04-01T15:22:15;156626.19;;;9.60
60936;BMP280;46804;51.786;19.520;2023-04-01T15:26:50;156565.91;;;9.37
60936;BMP280;46804;51.786;19.520;2023-04-01T15:31:19;156469.75;;;9.00
60936;BMP280;46804;51.786;19.520;2023-04-01T15:39:43;156448.00;;;8.92
60936;BMP280;46804;51.786;19.520;2023-04-01T15:43:49;156449.28;;;8.92
60936;BMP280;46804;51.786;19.520;2023-04-01T15:52:22;156430.03;;;8.85
60936;BMP280;46804;51.786;19.520;2023-04-01T15:56:29;156424.94;;;8.83
60936;BMP280;46804;51.786;19.520;2023-04-01T16:00:49;156372.38;;;8.63
60936;BMP280;46804;51.786;19.520;2023-04-01T16:05:23;156353.16;;;8.55
60936;BMP280;46804;51.786;19.520;2023-04-01T16:14:03;156330.09;;;8.47
60936;BMP280;46804;51.786;19.520;2023-04-01T16:22:33;156358.31;;;8.57
60936;BMP280;46804;51.786;19.520;2023-04-01T16:26:44;156355.72;;;8.56
60936;BMP280;46804;51.786;19.520;2023-04-01T16:30:55;156385.19;;;8.68
60936;BMP280;46804;51.786;19.520;2023-04-01T16:35:20;156327.53;;;8.46
60936;BMP280;46804;51.786;19.520;2023-04-01T16:39:27;156327.53;;;8.46
60936;BMP280;46804;51.786;19.520;2023-04-01T16:43:41;156285.25;;;8.29
60936;BMP280;46804;51.786;19.520;2023-04-01T16:47:54;156313.47;;;8.40
60936;BMP280;46804;51.786;19.520;2023-04-01T16:56:23;156330.09;;;8.47
60936;BMP280;46804;51.786;19.520;2023-04-01T17:00:28;156277.56;;;8.26
60936;BMP280;46804;51.786;19.520;2023-04-01T17:04:47;156280.13;;;8.27
60936;BMP280;46804;51.786;19.520;2023-04-01T17:09:17;156284.00;;;8.29
60936;BMP280;46804;51.786;19.520;2023-04-01T17:22:17;156226.25;;;8.07
60936;BMP280;46804;51.786;19.520;2023-04-01T17:30:27;156275.00;;;8.25
60936;BMP280;46804;51.786;19.520;2023-04-01T17:34:59;156268.59;;;8.23
60936;BMP280;46804;51.786;19.520;2023-04-01T17:43:48;156263.47;;;8.21
60936;BMP280;46804;51.786;19.520;2023-04-01T17:52:22;156185.28;;;7.91
60936;BMP280;46804;51.786;19.520;2023-04-01T17:56:47;156198.09;;;7.96
60936;BMP280;46804;51.786;19.520;2023-04-01T18:01:17;156171.22;;;7.85
60936;BMP280;46804;51.786;19.520;2023-04-01T18:05:26;156207.06;;;7.99
60936;BMP280;46804;51.786;19.520;2023-04-01T18:13:58;156168.63;;;7.84
60936;BMP280;46804;51.786;19.520;2023-04-01T18:26:42;156153.25;;;7.78
60936;BMP280;46804;51.786;19.520;2023-04-01T18:30:52;156149.44;;;7.77
60936;BMP280;46804;51.786;19.520;2023-04-01T18:35:02;156141.72;;;7.74
60936;BMP280;46804;51.786;19.520;2023-04-01T18:44:03;156150.72;;;7.78
60936;BMP280;46804;51.786;19.520;2023-04-01T18:48:14;156148.19;;;7.77
60936;BMP280;46804;51.786;19.520;2023-04-01T18:52:37;156190.41;;;7.93
60936;BMP280;46804;51.786;19.520;2023-04-01T18:56:41;156159.69;;;7.81
60936;BMP280;46804;51.786;19.520;2023-04-01T19:00:49;156178.91;;;7.88
60936;BMP280;46804;51.786;19.520;2023-04-01T19:09:49;156099.50;;;7.58
60936;BMP280;46804;51.786;19.520;2023-04-01T19:18:52;156112.28;;;7.63
60936;BMP280;46804;51.786;19.520;2023-04-01T19:27:42;156135.34;;;7.72
60936;BMP280;46804;51.786;19.520;2023-04-01T19:36:02;156102.03;;;7.59
60936;BMP280;46804;51.786;19.520;2023-04-01T19:40:28;156102.03;;;7.59
60936;BMP280;46804;51.786;19.520;2023-04-01T19:44:46;156098.22;;;7.57
60936;BMP280;46804;51.786;19.520;2023-04-01T19:49:04;156081.59;;;7.51
60936;BMP280;46804;51.786;19.520;2023-04-01T19:53:28;156061.09;;;7.43
60936;BMP280;46804;51.786;19.520;2023-04-01T19:57:47;156054.69;;;7.41
60936;BMP280;46804;51.786;19.520;2023-04-01T20:02:25;156096.97;;;7.57
60936;BMP280;46804;51.786;19.520;2023-04-01T20:06:41;156123.81;;;7.67
60936;BMP280;46804;51.786;19.520;2023-04-01T20:10:58;156103.34;;;7.59
60936;BMP280;46804;51.786;19.520;2023-04-01T20:15:04;156034.19;;;7.33
60936;BMP280;46804;51.786;19.520;2023-04-01T20:19:39;156040.63;;;7.35
60936;BMP280;46804;51.786;19.520;2023-04-01T20:23:43;156026.53;;;7.30
60936;BMP280;46804;51.786;19.520;2023-04-01T20:27:58;156054.69;;;7.41
60936;BMP280;46804;51.786;19.520;2023-04-01T20:40:49;155942.06;;;6.97
60936;BMP280;46804;51.786;19.520;2023-04-01T20:45:01;155977.88;;;7.11
60936;BMP280;46804;51.786;19.520;2023-04-01T20:49:19;155956.16;;;7.03
60936;BMP280;46804;51.786;19.520;2023-04-01T20:53:28;155957.41;;;7.03
60936;BMP280;46804;51.786;19.520;2023-04-01T20:57:43;155947.19;;;6.99
60936;BMP280;46804;51.786;19.520;2023-04-01T21:02:05;155922.88;;;6.90
60936;BMP280;46804;51.786;19.520;2023-04-01T21:10:39;155935.66;;;6.95
60936;BMP280;46804;51.786;19.520;2023-04-01T21:14:51;155971.47;;;7.09
60936;BMP280;46804;51.786;19.520;2023-04-01T21:19:08;155940.78;;;6.97
60936;BMP280;46804;51.786;19.520;2023-04-01T21:23:23;155928.00;;;6.92
60936;BMP280;46804;51.786;19.520;2023-04-01T21:40:47;155939.50;;;6.96
60936;BMP280;46804;51.786;19.520;2023-04-01T21:53:45;155847.34;;;6.61
60936;BMP280;46804;51.786;19.520;2023-04-01T22:06:41;155862.72;;;6.67
60936;BMP280;46804;51.786;19.520;2023-04-01T22:10:51;155856.31;;;6.64
60936;BMP280;46804;51.786;19.520;2023-04-01T22:19:20;155855.06;;;6.64
60936;BMP280;46804;51.786;19.520;2023-04-01T22:23:37;155880.63;;;6.74
60936;BMP280;46804;51.786;19.520;2023-04-01T22:27:48;155817.94;;;6.49
60936;BMP280;46804;51.786;19.520;2023-04-01T22:31:55;155838.41;;;6.57
60936;BMP280;46804;51.786;19.520;2023-04-01T22:36:06;155832.03;;;6.55
60936;BMP280;46804;51.786;19.520;2023-04-01T22:40:23;155824.31;;;6.52
60936;BMP280;46804;51.786;19.520;2023-04-01T22:45:18;155837.16;;;6.57
60936;BMP280;46804;51.786;19.520;2023-04-01T23:01:41;155667.00;;;5.91
60936;BMP280;46804;51.786;19.520;2023-04-01T23:06:06;155673.44;;;5.94
60936;BMP280;46804;51.786;19.520;2023-04-01T23:10:19;155669.59;;;5.92
60936;BMP280;46804;51.786;19.520;2023-04-01T23:18:45;155683.63;;;5.98
60936;BMP280;46804;51.786;19.520;2023-04-01T23:27:40;155663.19;;;5.90
60936;BMP280;46804;51.786;19.520;2023-04-01T23:31:45;155617.19;;;5.72
60936;BMP280;46804;51.786;19.520;2023-04-01T23:36:00;155573.66;;;5.55
60936;BMP280;46804;51.786;19.520;2023-04-01T23:40:12;155532.75;;;5.40
60936;BMP280;46804;51.786;19.520;2023-04-01T23:44:14;155589.00;;;5.61
60936;BMP280;46804;51.786;19.520;2023-04-01T23:48:16;155612.00;;;5.70
60936;BMP280;46804;51.786;19.520;2023-04-01T23:52:27;155525.06;;;5.37
60936;BMP280;46804;51.786;19.520;2023-04-01T23:56:38;155553.16;;;5.47
